PUA2603 SPZO-SPJC
Flight info
| Callsign | PUA2603 |
|---|---|
| Flight time | 1h 2m |
| Altitude | 38000 |
| Route | GAXUN UT321 UDENI UT332 PEROV |
| Aircraft | A20N/M-SDE2E3FGHIRWXY/LB1 |
Departure
| Time | 2026-04-24 04:48 |
|---|---|
| Airport | Alejandro Velasco Astete International Airport (SPZO) |
Arrival
| Time | 2026-04-24 05:50 |
|---|---|
| Airport | Jorge Chávez International Airport (SPJC) |
| Time | Latitude | Longitude | Altitude | Speed | Heading |
|---|---|---|---|---|---|
| 2026-04-24 04:24 | -13.53740 | -71.94396 | 10833 ft | 0 kts | 121° |
| 2026-04-24 04:39 | -13.53739 | -71.94397 | 10833 ft | 1 kts | 121° |
| 2026-04-24 04:39 | -13.53732 | -71.94410 | 10834 ft | 2 kts | 120° |
| 2026-04-24 04:39 | -13.53721 | -71.94421 | 10834 ft | 2 kts | 149° |
| 2026-04-24 04:39 | -13.53707 | -71.94427 | 10834 ft | 2 kts | 172° |
| 2026-04-24 04:40 | -13.53692 | -71.94427 | 10833 ft | 2 kts | 195° |
| 2026-04-24 04:40 | -13.53679 | -71.94420 | 10833 ft | 2 kts | 219° |
| 2026-04-24 04:40 | -13.53669 | -71.94408 | 10832 ft | 2 kts | 243° |
| 2026-04-24 04:40 | -13.53664 | -71.94393 | 10831 ft | 2 kts | 266° |
| 2026-04-24 04:41 | -13.53664 | -71.94385 | 10831 ft | 1 kts | 280° |
| 2026-04-24 04:41 | -13.53665 | -71.94381 | 10830 ft | 0 kts | 276° |
| 2026-04-24 04:43 | -13.53664 | -71.94389 | 10831 ft | 3 kts | 276° |
| 2026-04-24 04:43 | -13.53660 | -71.94419 | 10832 ft | 4 kts | 276° |
| 2026-04-24 04:43 | -13.53656 | -71.94457 | 10834 ft | 5 kts | 276° |
| 2026-04-24 04:43 | -13.53652 | -71.94502 | 10837 ft | 6 kts | 276° |
| 2026-04-24 04:44 | -13.53647 | -71.94553 | 10840 ft | 7 kts | 275° |
| 2026-04-24 04:44 | -13.53640 | -71.94619 | 10843 ft | 10 kts | 276° |
| 2026-04-24 04:44 | -13.53631 | -71.94701 | 10848 ft | 12 kts | 277° |
| 2026-04-24 04:44 | -13.53621 | -71.94797 | 10853 ft | 14 kts | 276° |
| 2026-04-24 04:45 | -13.53609 | -71.94902 | 10859 ft | 14 kts | 276° |
| 2026-04-24 04:45 | -13.53598 | -71.95001 | 10865 ft | 14 kts | 276° |
| 2026-04-24 04:45 | -13.53588 | -71.95098 | 10873 ft | 12 kts | 275° |
| 2026-04-24 04:45 | -13.53579 | -71.95185 | 10880 ft | 11 kts | 276° |
| 2026-04-24 04:46 | -13.53571 | -71.95255 | 10885 ft | 8 kts | 276° |
| 2026-04-24 04:46 | -13.53566 | -71.95312 | 10888 ft | 9 kts | 276° |
| 2026-04-24 04:46 | -13.53558 | -71.95383 | 10892 ft | 10 kts | 276° |
| 2026-04-24 04:46 | -13.53523 | -71.95451 | 10894 ft | 9 kts | 341° |
| 2026-04-24 04:47 | -13.53465 | -71.95435 | 10890 ft | 10 kts | 37° |
| 2026-04-24 04:47 | -13.53421 | -71.95377 | 10885 ft | 1 kts | 91° |
| 2026-04-24 04:47 | -13.53422 | -71.95355 | 10883 ft | 7 kts | 92° |
| 2026-04-24 04:47 | -13.53437 | -71.95194 | 10874 ft | 51 kts | 95° |
| 2026-04-24 04:48 | -13.53500 | -71.94575 | 10840 ft | 120 kts | 97° |
| 2026-04-24 04:48 | -13.53607 | -71.93506 | 10792 ft | 178 kts | 97° |
| 2026-04-24 04:48 | -13.53743 | -71.92130 | 11089 ft | 198 kts | 95° |
| 2026-04-24 04:48 | -13.53881 | -71.90730 | 11770 ft | 199 kts | 95° |
| 2026-04-24 04:49 | -13.54064 | -71.89353 | 12486 ft | 199 kts | 102° |
| 2026-04-24 04:49 | -13.54503 | -71.87985 | 12976 ft | 207 kts | 111° |
| 2026-04-24 04:49 | -13.55141 | -71.86594 | 13291 ft | 223 kts | 113° |
| 2026-04-24 04:49 | -13.55737 | -71.85074 | 13591 ft | 240 kts | 109° |
| 2026-04-24 04:50 | -13.56341 | -71.83373 | 13822 ft | 261 kts | 108° |
| 2026-04-24 04:50 | -13.56961 | -71.81583 | 14152 ft | 277 kts | 105° |
| 2026-04-24 04:50 | -13.57206 | -71.79571 | 14456 ft | 293 kts | 84° |
| 2026-04-24 04:50 | -13.56770 | -71.77473 | 14770 ft | 308 kts | 69° |
| 2026-04-24 04:51 | -13.55745 | -71.75471 | 15059 ft | 324 kts | 53° |
| 2026-04-24 04:51 | -13.54150 | -71.73776 | 15331 ft | 340 kts | 37° |
| 2026-04-24 04:51 | -13.52041 | -71.72581 | 15618 ft | 355 kts | 20° |
| 2026-04-24 04:51 | -13.49600 | -71.72095 | 16133 ft | 363 kts | 3° |
| 2026-04-24 04:52 | -13.47069 | -71.72417 | 16739 ft | 368 kts | 345° |
| 2026-04-24 04:52 | -13.44757 | -71.73547 | 17272 ft | 374 kts | 326° |
| 2026-04-24 04:52 | -13.42886 | -71.75420 | 17772 ft | 381 kts | 307° |
| 2026-04-24 04:52 | -13.41688 | -71.77885 | 18259 ft | 388 kts | 287° |
| 2026-04-24 04:53 | -13.41358 | -71.80594 | 18726 ft | 393 kts | 268° |
| 2026-04-24 04:53 | -13.41943 | -71.83339 | 19165 ft | 398 kts | 248° |
| 2026-04-24 04:53 | -13.43056 | -71.85987 | 19625 ft | 402 kts | 251° |
| 2026-04-24 04:53 | -13.43494 | -71.88776 | 20014 ft | 405 kts | 274° |
| 2026-04-24 04:54 | -13.42866 | -71.91571 | 20478 ft | 405 kts | 292° |
| 2026-04-24 04:54 | -13.41747 | -71.94246 | 20942 ft | 407 kts | 296° |
| 2026-04-24 04:54 | -13.40584 | -71.96896 | 21375 ft | 411 kts | 295° |
| 2026-04-24 04:54 | -13.39496 | -71.99492 | 21788 ft | 415 kts | 294° |
| 2026-04-24 04:55 | -13.38411 | -72.02216 | 22210 ft | 419 kts | 293° |
| 2026-04-24 04:55 | -13.37334 | -72.05024 | 22638 ft | 422 kts | 292° |
| 2026-04-24 04:55 | -13.36274 | -72.07842 | 23080 ft | 425 kts | 292° |
| 2026-04-24 04:55 | -13.35216 | -72.10683 | 23546 ft | 427 kts | 292° |
| 2026-04-24 04:56 | -13.34168 | -72.13510 | 24059 ft | 429 kts | 292° |
| 2026-04-24 04:56 | -13.33110 | -72.16369 | 24568 ft | 431 kts | 292° |
| 2026-04-24 04:56 | -13.32036 | -72.19271 | 25051 ft | 434 kts | 292° |
| 2026-04-24 04:56 | -13.30969 | -72.22154 | 25518 ft | 436 kts | 292° |
| 2026-04-24 04:57 | -13.29898 | -72.25042 | 25985 ft | 438 kts | 292° |
| 2026-04-24 04:57 | -13.28813 | -72.27972 | 26432 ft | 441 kts | 292° |
| 2026-04-24 04:57 | -13.27725 | -72.30908 | 26857 ft | 443 kts | 292° |
| 2026-04-24 04:57 | -13.26629 | -72.33859 | 27284 ft | 446 kts | 292° |
| 2026-04-24 04:58 | -13.25520 | -72.36848 | 27707 ft | 448 kts | 292° |
| 2026-04-24 04:58 | -13.24408 | -72.39844 | 28112 ft | 450 kts | 292° |
| 2026-04-24 04:58 | -13.23306 | -72.42812 | 28500 ft | 452 kts | 292° |
| 2026-04-24 04:58 | -13.22192 | -72.45811 | 28883 ft | 454 kts | 292° |
| 2026-04-24 04:59 | -13.21056 | -72.48869 | 29255 ft | 456 kts | 292° |
| 2026-04-24 04:59 | -13.19919 | -72.51926 | 29632 ft | 458 kts | 292° |
| 2026-04-24 04:59 | -13.18792 | -72.54953 | 30127 ft | 456 kts | 292° |
| 2026-04-24 04:59 | -13.17678 | -72.57949 | 30667 ft | 454 kts | 292° |
| 2026-04-24 05:00 | -13.16557 | -72.60967 | 31177 ft | 451 kts | 292° |
| 2026-04-24 05:00 | -13.15445 | -72.63949 | 31647 ft | 449 kts | 293° |
| 2026-04-24 05:00 | -13.14337 | -72.66927 | 32076 ft | 448 kts | 293° |
| 2026-04-24 05:00 | -13.13214 | -72.69935 | 32508 ft | 446 kts | 293° |
| 2026-04-24 05:01 | -13.12108 | -72.72898 | 32965 ft | 444 kts | 293° |
| 2026-04-24 05:01 | -13.11014 | -72.75857 | 33416 ft | 443 kts | 292° |
| 2026-04-24 05:01 | -13.10044 | -72.78831 | 33833 ft | 443 kts | 289° |
| 2026-04-24 05:01 | -13.09235 | -72.81864 | 34227 ft | 443 kts | 286° |
| 2026-04-24 05:02 | -13.08525 | -72.84946 | 34611 ft | 443 kts | 286° |
| 2026-04-24 05:02 | -13.07835 | -72.88002 | 34978 ft | 442 kts | 286° |
| 2026-04-24 05:02 | -13.07147 | -72.91053 | 35332 ft | 441 kts | 286° |
| 2026-04-24 05:02 | -13.06457 | -72.94103 | 35670 ft | 441 kts | 286° |
| 2026-04-24 05:03 | -13.05757 | -72.97190 | 35983 ft | 441 kts | 286° |
| 2026-04-24 05:03 | -13.05066 | -73.00228 | 36283 ft | 441 kts | 286° |
| 2026-04-24 05:03 | -13.04372 | -73.03271 | 36553 ft | 441 kts | 286° |
| 2026-04-24 05:03 | -13.03673 | -73.06335 | 36804 ft | 442 kts | 286° |
| 2026-04-24 05:04 | -13.02974 | -73.09396 | 37053 ft | 442 kts | 287° |
| 2026-04-24 05:04 | -13.02273 | -73.12462 | 37272 ft | 443 kts | 287° |
| 2026-04-24 05:04 | -13.01566 | -73.15551 | 37460 ft | 444 kts | 287° |
| 2026-04-24 05:04 | -13.00866 | -73.18602 | 37648 ft | 445 kts | 287° |
| 2026-04-24 05:05 | -13.00153 | -73.21714 | 37828 ft | 447 kts | 287° |
| 2026-04-24 05:05 | -12.99449 | -73.24783 | 37998 ft | 448 kts | 287° |
| 2026-04-24 05:05 | -12.98735 | -73.27901 | 38183 ft | 448 kts | 287° |
| 2026-04-24 05:05 | -12.98028 | -73.30987 | 38352 ft | 449 kts | 287° |
| 2026-04-24 05:06 | -12.97313 | -73.34098 | 38501 ft | 450 kts | 287° |
| 2026-04-24 05:06 | -12.96588 | -73.37255 | 38640 ft | 452 kts | 287° |
| 2026-04-24 05:06 | -12.95148 | -73.43515 | 38635 ft | 452 kts | 287° |
| 2026-04-24 05:07 | -12.93717 | -73.49729 | 38598 ft | 452 kts | 287° |
| 2026-04-24 05:07 | -12.92269 | -73.56017 | 38580 ft | 452 kts | 287° |
| 2026-04-24 05:08 | -12.90822 | -73.62295 | 38605 ft | 452 kts | 287° |
| 2026-04-24 05:08 | -12.89377 | -73.68545 | 38600 ft | 452 kts | 287° |
| 2026-04-24 05:09 | -12.87926 | -73.74824 | 38604 ft | 452 kts | 287° |
| 2026-04-24 05:09 | -12.86478 | -73.81078 | 38621 ft | 452 kts | 287° |
| 2026-04-24 05:10 | -12.85036 | -73.87299 | 38616 ft | 451 kts | 287° |
| 2026-04-24 05:10 | -12.83590 | -73.93539 | 38633 ft | 451 kts | 287° |
| 2026-04-24 05:11 | -12.82142 | -73.99779 | 38658 ft | 452 kts | 287° |
| 2026-04-24 05:11 | -12.80688 | -74.06016 | 38688 ft | 453 kts | 287° |
| 2026-04-24 05:12 | -12.79236 | -74.12249 | 38699 ft | 453 kts | 287° |
| 2026-04-24 05:12 | -12.77778 | -74.18509 | 38749 ft | 452 kts | 287° |
| 2026-04-24 05:13 | -12.75605 | -74.27831 | 38809 ft | 451 kts | 287° |
| 2026-04-24 05:14 | -12.74142 | -74.34089 | 38804 ft | 452 kts | 287° |
| 2026-04-24 05:14 | -12.72681 | -74.40334 | 38819 ft | 452 kts | 287° |
| 2026-04-24 05:15 | -12.71220 | -74.46561 | 38787 ft | 453 kts | 287° |
| 2026-04-24 05:15 | -12.69748 | -74.52840 | 38797 ft | 453 kts | 287° |
| 2026-04-24 05:16 | -12.68280 | -74.59094 | 38803 ft | 453 kts | 287° |
| 2026-04-24 05:16 | -12.66805 | -74.65369 | 38854 ft | 453 kts | 287° |
| 2026-04-24 05:17 | -12.65338 | -74.71602 | 38881 ft | 453 kts | 287° |
| 2026-04-24 05:17 | -12.63862 | -74.77869 | 38919 ft | 453 kts | 287° |
| 2026-04-24 05:18 | -12.62392 | -74.84103 | 38930 ft | 453 kts | 287° |
| 2026-04-24 05:18 | -12.60916 | -74.90354 | 38957 ft | 453 kts | 287° |
| 2026-04-24 05:19 | -12.59444 | -74.96581 | 38942 ft | 453 kts | 287° |
| 2026-04-24 05:19 | -12.57958 | -75.02859 | 38945 ft | 453 kts | 287° |
| 2026-04-24 05:20 | -12.56485 | -75.09084 | 38947 ft | 453 kts | 287° |
| 2026-04-24 05:20 | -12.55001 | -75.15339 | 38938 ft | 454 kts | 287° |
| 2026-04-24 05:21 | -12.53513 | -75.21607 | 38922 ft | 455 kts | 287° |
| 2026-04-24 05:21 | -12.52014 | -75.27914 | 38906 ft | 455 kts | 287° |
| 2026-04-24 05:22 | -12.50576 | -75.34213 | 38913 ft | 455 kts | 287° |
| 2026-04-24 05:22 | -12.49161 | -75.40485 | 38922 ft | 455 kts | 287° |
| 2026-04-24 05:23 | -12.47722 | -75.46828 | 38936 ft | 456 kts | 287° |
| 2026-04-24 05:23 | -12.47004 | -75.49986 | 38714 ft | 459 kts | 287° |
| 2026-04-24 05:23 | -12.46284 | -75.53150 | 37883 ft | 465 kts | 287° |
| 2026-04-24 05:23 | -12.45539 | -75.56408 | 36939 ft | 468 kts | 287° |
| 2026-04-24 05:24 | -12.44801 | -75.59641 | 36156 ft | 468 kts | 286° |
| 2026-04-24 05:24 | -12.44072 | -75.62840 | 35443 ft | 466 kts | 286° |
| 2026-04-24 05:24 | -12.43336 | -75.66068 | 34747 ft | 464 kts | 287° |
| 2026-04-24 05:24 | -12.42608 | -75.69257 | 34054 ft | 461 kts | 286° |
| 2026-04-24 05:25 | -12.41887 | -75.72415 | 33352 ft | 460 kts | 286° |
| 2026-04-24 05:25 | -12.41155 | -75.75615 | 32658 ft | 458 kts | 286° |
| 2026-04-24 05:25 | -12.40425 | -75.78802 | 31985 ft | 458 kts | 286° |
| 2026-04-24 05:25 | -12.39697 | -75.81972 | 31271 ft | 459 kts | 286° |
| 2026-04-24 05:26 | -12.38973 | -75.85135 | 30561 ft | 459 kts | 286° |
| 2026-04-24 05:26 | -12.38238 | -75.88340 | 29825 ft | 460 kts | 286° |
| 2026-04-24 05:26 | -12.37509 | -75.91526 | 29207 ft | 458 kts | 286° |
| 2026-04-24 05:26 | -12.36779 | -75.94714 | 28742 ft | 455 kts | 286° |
| 2026-04-24 05:27 | -12.36057 | -75.97855 | 28283 ft | 452 kts | 287° |
| 2026-04-24 05:27 | -12.35331 | -76.01013 | 27777 ft | 448 kts | 285° |
| 2026-04-24 05:27 | -12.34625 | -76.04084 | 27261 ft | 445 kts | 285° |
| 2026-04-24 05:27 | -12.33938 | -76.07198 | 26706 ft | 443 kts | 285° |
| 2026-04-24 05:28 | -12.33274 | -76.10303 | 26134 ft | 441 kts | 284° |
| 2026-04-24 05:28 | -12.32616 | -76.13370 | 25558 ft | 439 kts | 284° |
| 2026-04-24 05:28 | -12.31965 | -76.16403 | 24968 ft | 438 kts | 284° |
| 2026-04-24 05:28 | -12.31311 | -76.19431 | 24411 ft | 436 kts | 284° |
| 2026-04-24 05:29 | -12.30657 | -76.22459 | 23881 ft | 433 kts | 284° |
| 2026-04-24 05:29 | -12.30012 | -76.25443 | 23324 ft | 432 kts | 284° |
| 2026-04-24 05:29 | -12.29374 | -76.28415 | 22771 ft | 430 kts | 284° |
| 2026-04-24 05:29 | -12.28735 | -76.31390 | 22231 ft | 427 kts | 284° |
| 2026-04-24 05:30 | -12.28101 | -76.34344 | 21694 ft | 425 kts | 284° |
| 2026-04-24 05:30 | -12.27469 | -76.37282 | 21185 ft | 422 kts | 284° |
| 2026-04-24 05:30 | -12.26842 | -76.40198 | 20671 ft | 420 kts | 284° |
| 2026-04-24 05:30 | -12.26217 | -76.43095 | 20134 ft | 418 kts | 284° |
| 2026-04-24 05:31 | -12.25585 | -76.46019 | 19602 ft | 415 kts | 283° |
| 2026-04-24 05:31 | -12.24971 | -76.48858 | 19089 ft | 412 kts | 283° |
| 2026-04-24 05:31 | -12.24353 | -76.51714 | 18585 ft | 408 kts | 283° |
| 2026-04-24 05:31 | -12.23749 | -76.54512 | 18240 ft | 399 kts | 283° |
| 2026-04-24 05:32 | -12.23161 | -76.57237 | 18054 ft | 387 kts | 283° |
| 2026-04-24 05:32 | -12.22587 | -76.59883 | 17788 ft | 377 kts | 283° |
| 2026-04-24 05:32 | -12.22032 | -76.62444 | 17617 ft | 364 kts | 283° |
| 2026-04-24 05:32 | -12.21490 | -76.64943 | 17491 ft | 352 kts | 284° |
| 2026-04-24 05:33 | -12.20961 | -76.67362 | 17129 ft | 348 kts | 284° |
| 2026-04-24 05:33 | -12.20434 | -76.69764 | 16704 ft | 347 kts | 284° |
| 2026-04-24 05:33 | -12.19911 | -76.72144 | 16333 ft | 341 kts | 283° |
| 2026-04-24 05:34 | -12.18893 | -76.76782 | 15505 ft | 331 kts | 283° |
| 2026-04-24 05:34 | -12.18388 | -76.79081 | 14975 ft | 326 kts | 283° |
| 2026-04-24 05:34 | -12.17906 | -76.81280 | 14589 ft | 319 kts | 283° |
| 2026-04-24 05:34 | -12.17419 | -76.83500 | 14253 ft | 317 kts | 283° |
| 2026-04-24 05:35 | -12.16934 | -76.85706 | 13839 ft | 318 kts | 283° |
| 2026-04-24 05:35 | -12.16454 | -76.87888 | 13479 ft | 318 kts | 283° |
| 2026-04-24 05:35 | -12.15968 | -76.90105 | 13033 ft | 320 kts | 283° |
| 2026-04-24 05:35 | -12.15485 | -76.92313 | 12588 ft | 318 kts | 283° |
| 2026-04-24 05:36 | -12.15003 | -76.94513 | 12265 ft | 315 kts | 283° |
| 2026-04-24 05:36 | -12.14527 | -76.96689 | 11944 ft | 312 kts | 283° |
| 2026-04-24 05:36 | -12.14063 | -76.98814 | 11610 ft | 309 kts | 283° |
| 2026-04-24 05:36 | -12.13592 | -77.00968 | 11247 ft | 306 kts | 283° |
| 2026-04-24 05:37 | -12.13126 | -77.03092 | 10937 ft | 304 kts | 283° |
| 2026-04-24 05:37 | -12.12668 | -77.05181 | 10580 ft | 301 kts | 283° |
| 2026-04-24 05:37 | -12.12216 | -77.07244 | 10260 ft | 298 kts | 283° |
| 2026-04-24 05:37 | -12.11767 | -77.09293 | 9922 ft | 296 kts | 284° |
| 2026-04-24 05:38 | -12.11319 | -77.11338 | 9577 ft | 293 kts | 284° |
| 2026-04-24 05:38 | -12.10876 | -77.13365 | 9258 ft | 290 kts | 284° |
| 2026-04-24 05:38 | -12.10484 | -77.15144 | 8967 ft | 288 kts | 284° |
| 2026-04-24 05:38 | -12.10178 | -77.16535 | 8869 ft | 280 kts | 284° |
| 2026-04-24 05:39 | -12.09661 | -77.18410 | 8747 ft | 266 kts | 298° |
| 2026-04-24 05:39 | -12.08480 | -77.19749 | 8515 ft | 256 kts | 331° |
| 2026-04-24 05:39 | -12.06864 | -77.20533 | 8221 ft | 252 kts | 337° |
| 2026-04-24 05:39 | -12.05272 | -77.21263 | 7930 ft | 250 kts | 336° |
| 2026-04-24 05:40 | -12.03684 | -77.22018 | 7634 ft | 249 kts | 335° |
| 2026-04-24 05:40 | -12.02134 | -77.22772 | 7338 ft | 248 kts | 335° |
| 2026-04-24 05:40 | -12.00568 | -77.23556 | 7046 ft | 247 kts | 334° |
| 2026-04-24 05:40 | -11.99052 | -77.24346 | 6743 ft | 246 kts | 333° |
| 2026-04-24 05:41 | -11.97504 | -77.25159 | 6441 ft | 245 kts | 333° |
| 2026-04-24 05:41 | -11.95997 | -77.25948 | 6143 ft | 244 kts | 333° |
| 2026-04-24 05:41 | -11.94485 | -77.26739 | 5850 ft | 243 kts | 334° |
| 2026-04-24 05:41 | -11.92976 | -77.27525 | 5577 ft | 243 kts | 333° |
| 2026-04-24 05:42 | -11.91462 | -77.28302 | 5276 ft | 242 kts | 335° |
| 2026-04-24 05:42 | -11.89944 | -77.29047 | 4981 ft | 241 kts | 335° |
| 2026-04-24 05:42 | -11.88416 | -77.29793 | 4713 ft | 240 kts | 335° |
| 2026-04-24 05:42 | -11.86912 | -77.30527 | 4378 ft | 241 kts | 336° |
| 2026-04-24 05:43 | -11.85316 | -77.31014 | 4058 ft | 239 kts | 4° |
| 2026-04-24 05:43 | -11.83793 | -77.30509 | 3855 ft | 228 kts | 39° |
| 2026-04-24 05:43 | -11.82810 | -77.29302 | 3760 ft | 221 kts | 65° |
| 2026-04-24 05:43 | -11.82153 | -77.27862 | 3603 ft | 219 kts | 67° |
| 2026-04-24 05:44 | -11.81540 | -77.26481 | 3465 ft | 211 kts | 67° |
| 2026-04-24 05:44 | -11.80931 | -77.25149 | 3340 ft | 203 kts | 66° |
| 2026-04-24 05:44 | -11.80540 | -77.23808 | 3148 ft | 194 kts | 95° |
| 2026-04-24 05:44 | -11.81003 | -77.22519 | 3025 ft | 197 kts | 127° |
| 2026-04-24 05:45 | -11.81993 | -77.21541 | 2932 ft | 198 kts | 143° |
| 2026-04-24 05:45 | -11.83180 | -77.20802 | 2719 ft | 201 kts | 151° |
| 2026-04-24 05:45 | -11.84431 | -77.20168 | 2430 ft | 202 kts | 153° |
| 2026-04-24 05:45 | -11.85693 | -77.19559 | 2235 ft | 195 kts | 153° |
| 2026-04-24 05:46 | -11.86889 | -77.18982 | 2108 ft | 181 kts | 153° |
| 2026-04-24 05:46 | -11.87967 | -77.18456 | 2081 ft | 163 kts | 153° |
| 2026-04-24 05:46 | -11.88940 | -77.17976 | 2064 ft | 144 kts | 153° |
| 2026-04-24 05:46 | -11.89836 | -77.17532 | 2094 ft | 142 kts | 153° |
| 2026-04-24 05:47 | -11.90733 | -77.17088 | 2112 ft | 143 kts | 153° |
| 2026-04-24 05:47 | -11.91627 | -77.16644 | 2056 ft | 144 kts | 153° |
| 2026-04-24 05:47 | -11.92540 | -77.16193 | 1866 ft | 144 kts | 153° |
| 2026-04-24 05:47 | -11.93416 | -77.15761 | 1679 ft | 133 kts | 153° |
| 2026-04-24 05:48 | -11.93973 | -77.15486 | 1551 ft | 129 kts | 153° |
| 2026-04-24 05:48 | -11.94776 | -77.15089 | 1396 ft | 128 kts | 153° |
| 2026-04-24 05:48 | -11.95576 | -77.14694 | 1238 ft | 127 kts | 153° |
| 2026-04-24 05:48 | -11.96381 | -77.14298 | 1071 ft | 127 kts | 154° |
| 2026-04-24 05:49 | -11.97167 | -77.13909 | 907 ft | 126 kts | 154° |
| 2026-04-24 05:49 | -11.97971 | -77.13512 | 740 ft | 126 kts | 154° |
| 2026-04-24 05:49 | -11.98763 | -77.13120 | 572 ft | 125 kts | 154° |
| 2026-04-24 05:49 | -11.99551 | -77.12730 | 405 ft | 125 kts | 154° |
| 2026-04-24 05:50 | -12.00335 | -77.12344 | 245 ft | 124 kts | 155° |
| 2026-04-24 05:50 | -12.01111 | -77.11969 | 128 ft | 119 kts | 155° |
| 2026-04-24 05:50 | -12.01745 | -77.11657 | 127 ft | 75 kts | 154° |
| 2026-04-24 05:50 | -12.02060 | -77.11489 | 127 ft | 33 kts | 144° |
| 2026-04-24 05:51 | -12.02227 | -77.11346 | 127 ft | 29 kts | 134° |
| 2026-04-24 05:51 | -12.02348 | -77.11184 | 127 ft | 27 kts | 120° |
| 2026-04-24 05:51 | -12.02466 | -77.11040 | 127 ft | 25 kts | 134° |
| 2026-04-24 05:51 | -12.02529 | -77.10919 | 127 ft | 12 kts | 90° |
| 2026-04-24 05:52 | -12.02513 | -77.10866 | 127 ft | 6 kts | 64° |
| 2026-04-24 05:52 | -12.02506 | -77.10850 | 127 ft | 0 kts | 64° |